Kezdőlap
METAR-TAF:

METAR-TAF

Repülőterek :

Longyearbyen, Norvégia

földrajzi szélesség: 78-15N, földrajzi hosszúság: 015-28E, magasság: 2 m

Jelenlegi meteorológiai megfigyelések

A jelentés 19 perccel ezelõtt készült, 03:50 UTC
Északi szél 3 kt
Hőmérséklet 7°C
Páratartalom 93%
Légköri nyomás 1017 hPa
Látótávolság 10 km, vagy több
Szórványos felhőzet 500 lábon
Borult 1800 lábon

METAR: ENSB 190350Z 35003KT 9999 SCT005 OVC018 07/06 Q1017 RMK WIND 1400FT VRB02KT

Idő: 06:09 (04:09 UTC)

Előrejelzés

Az előrejelzés 19-én 00 óra UTC és 19-én 24 óra UTC között érvényes
Északi szél 8 kt
Látótávolság 10 km, vagy több
Kevés felhő 800 lábon
Szórványos felhőzet 2000 lábon
19-én 00 óra UTC és 19-én 10 óra UTC között ideiglenes
Szakadozott felhőzet 900 lábon
19-én 15 óra UTC és 19-én 20 óra UTC között ideiglenes
Kelet-délkeleti szél 12 kt

TAF: ENSB 1900/1924 01008KT 9999 FEW008 SCT020 TEMPO 1900/1910 BKN009 TEMPO 1915/1920 12012KT

Meteorológiai megfigyelések és előrejelzések több, mint 4000 repülőtéren (METAR és TAF jelentéseket).

A térképen piros és sárga pontok jelzik az elérhető meteorológiai állomásokat.

Mozgassa az egeret a pont fölött, hogy megjelenjen az állomás neve.

Azután kattintson az időjárási megfigyelések és előrejelzések megtekintéséhez.

A térkép megváltoztatása: kattintson a fekete keresztel jelölt zöld gombra ráközelítéshez, a vonallal jelölt zöld gombra távolításhoz, vagy a zöld nyilakra a szomszédos térképek eléréséhez.


METAR-TAF: